Time;durP1;ratioP1;P1;durP2;ratioP2;P2;SDS_P1;SDS_P2;PMS_P1;PMS_P2;Temp;Humidity;BMP_temperature;BMP_pressure;BME280_temperature;BME280_humidity;BME280_pressure;Samples;Min_cycle;Max_cycle;Signal;HPM_P1;HPM_P2
2022/01/24 00:01:53;;;;;;;18.92;7.50;;;;;;;;;;4982489;28;20567;-73
2022/01/24 00:04:19;;;;;;;18.90;7.07;;;;;;;;;;4986025;28;20085;-73
2022/01/24 00:06:44;;;;;;;18.20;7.50;;;;;;;;;;4983626;28;20054;-73
2022/01/24 00:09:11;;;;;;;18.27;7.80;;;;;;;;;;4981702;28;20038;-72
2022/01/24 00:11:58;;;;;;;19.85;7.88;;;;;;;;;;4979906;28;20097;-72
2022/01/24 00:27:59;;;;;;;18.80;7.50;;;;;;;;;;4989629;28;19924;-73
2022/01/24 00:30:24;;;;;;;22.02;9.23;;;;;;;;;;4988796;28;20046;-73
2022/01/24 00:32:50;;;;;;;19.73;7.78;;;;;;;;;;4987102;28;20520;-72
2022/01/24 00:35:15;;;;;;;20.33;8.55;;;;;;;;;;4985157;28;20034;-72
2022/01/24 00:37:41;;;;;;;17.95;7.20;;;;;;;;;;4982021;28;20038;-72
2022/01/24 00:40:07;;;;;;;19.33;7.82;;;;;;;;;;4986186;28;20035;-73
2022/01/24 00:45:10;;;;;;;18.55;8.10;;;;;;;;;;4985116;28;20042;-73
2022/01/24 00:53:37;;;;;;;17.02;7.60;;;;;;;;;;4988944;28;20526;-73
2022/01/24 00:56:02;;;;;;;22.27;8.13;;;;;;;;;;4983489;28;20078;-70
2022/01/24 00:58:27;;;;;;;20.48;8.45;;;;;;;;;;4983727;28;20073;-72
2022/01/24 01:00:53;;;;;;;19.48;7.70;;;;;;;;;;4982337;28;20102;-73
2022/01/24 01:03:19;;;;;;;20.92;7.88;;;;;;;;;;4984574;28;20046;-72
2022/01/24 01:18:49;;;;;;;25.23;10.20;;;;;;;;;;4986052;28;20077;-73
2022/01/24 01:21:15;;;;;;;25.80;10.35;;;;;;;;;;5003196;28;20463;-73
2022/01/24 01:23:46;;;;;;;27.27;10.43;;;;;;;;;;4988367;28;20037;-73
2022/01/24 01:26:28;;;;;;;23.13;9.27;;;;;;;;;;4983589;28;20085;-73
2022/01/24 01:28:59;;;;;;;23.65;9.43;;;;;;;;;;4983734;28;20100;-73
2022/01/24 01:31:38;;;;;;;30.40;10.88;;;;;;;;;;4982982;28;20085;-71
2022/01/24 01:40:08;;;;;;;21.95;8.23;;;;;;;;;;4925153;29;20044;-73
2022/01/24 01:55:55;;;;;;;23.00;8.13;;;;;;;;;;4984079;28;20045;-72
2022/01/24 01:58:22;;;;;;;19.70;8.63;;;;;;;;;;4982799;28;20045;-73
2022/01/24 02:00:51;;;;;;;27.10;8.50;;;;;;;;;;4983177;28;20050;-73
2022/01/24 02:03:17;;;;;;;22.60;8.18;;;;;;;;;;4982873;28;20471;-72
2022/01/24 02:05:43;;;;;;;23.98;9.27;;;;;;;;;;4981293;28;20066;-73
2022/01/24 02:08:08;;;;;;;26.80;9.48;;;;;;;;;;4983336;28;20134;-73
2022/01/24 02:10:36;;;;;;;26.48;10.20;;;;;;;;;;4984780;28;20101;-73
2022/01/24 02:13:02;;;;;;;24.65;9.32;;;;;;;;;;4987352;28;20576;-73
2022/01/24 02:20:53;;;;;;;23.45;9.73;;;;;;;;;;4980856;28;20505;-73
2022/01/24 02:25:55;;;;;;;28.05;10.38;;;;;;;;;;4983406;28;20044;-72
2022/01/24 02:28:22;;;;;;;25.50;9.80;;;;;;;;;;4981449;28;20042;-71
2022/01/24 02:33:18;;;;;;;27.40;11.07;;;;;;;;;;4981076;28;20038;-73
2022/01/24 02:35:44;;;;;;;26.58;10.00;;;;;;;;;;4981534;28;20030;-72
2022/01/24 02:38:41;;;;;;;25.98;10.38;;;;;;;;;;4984280;28;20022;-72
2022/01/24 02:49:25;;;;;;;26.35;9.82;;;;;;;;;;4981483;28;19936;-73
2022/01/24 02:51:50;;;;;;;27.70;10.60;;;;;;;;;;4983010;28;20038;-73
2022/01/24 02:54:24;;;;;;;25.42;10.38;;;;;;;;;;4981101;28;20053;-72
2022/01/24 02:56:49;;;;;;;;;;;;;;;;;;4981307;28;20034;-73
2022/01/24 02:59:15;;;;;;;24.80;9.77;;;;;;;;;;4986663;28;19921;-73
2022/01/24 03:01:44;;;;;;;27.70;10.02;;;;;;;;;;4986343;28;20038;-73
2022/01/24 03:04:09;;;;;;;28.15;10.20;;;;;;;;;;4984039;28;20038;-73
2022/01/24 03:06:35;;;;;;;25.42;9.48;;;;;;;;;;4980318;28;20049;-71
2022/01/24 03:09:02;;;;;;;25.33;9.60;;;;;;;;;;4981844;28;20057;-71
2022/01/24 03:11:39;;;;;;;25.60;9.75;;;;;;;;;;4982495;28;20038;-73
2022/01/24 03:14:04;;;;;;;25.55;9.43;;;;;;;;;;4982841;28;20500;-73
2022/01/24 03:16:30;;;;;;;27.15;10.13;;;;;;;;;;4985104;28;20038;-73
2022/01/24 03:18:55;;;;;;;25.38;9.63;;;;;;;;;;4986443;28;20026;-73
2022/01/24 03:21:20;;;;;;;28.10;10.05;;;;;;;;;;4996135;28;20158;-73
2022/01/24 03:23:46;;;;;;;25.55;10.65;;;;;;;;;;4986087;28;20025;-73
2022/01/24 03:26:11;;;;;;;25.00;10.23;;;;;;;;;;4986420;28;20035;-73
2022/01/24 03:28:36;;;;;;;27.38;9.82;;;;;;;;;;4975280;28;20043;-73
2022/01/24 03:31:02;;;;;;;25.95;9.50;;;;;;;;;;4985126;28;20045;-73
2022/01/24 03:33:27;;;;;;;22.65;9.52;;;;;;;;;;4984831;28;20959;-73
2022/01/24 03:35:52;;;;;;;23.92;9.25;;;;;;;;;;4981430;28;20046;-73
2022/01/24 03:38:18;;;;;;;23.38;9.27;;;;;;;;;;4983106;28;20401;-73
2022/01/24 03:40:43;;;;;;;25.25;9.30;;;;;;;;;;4980400;28;20504;-73
2022/01/24 03:43:09;;;;;;;27.50;9.73;;;;;;;;;;4983847;28;20078;-72
2022/01/24 03:45:47;;;;;;;25.08;9.48;;;;;;;;;;4987834;28;20185;-72
2022/01/24 03:50:48;;;;;;;25.92;9.18;;;;;;;;;;4984611;28;20038;-73
2022/01/24 03:53:13;;;;;;;20.88;8.13;;;;;;;;;;4984927;28;20038;-73
2022/01/24 03:55:39;;;;;;;23.75;9.50;;;;;;;;;;4986669;28;20058;-69
2022/01/24 03:58:04;;;;;;;27.23;9.35;;;;;;;;;;4983584;28;20042;-73
2022/01/24 04:00:29;;;;;;;20.52;8.13;;;;;;;;;;4985471;28;20050;-72
2022/01/24 04:02:55;;;;;;;26.83;9.32;;;;;;;;;;4986583;28;20479;-71
2022/01/24 04:05:20;;;;;;;23.00;8.60;;;;;;;;;;4987471;28;20723;-73
2022/01/24 04:07:46;;;;;;;23.98;8.73;;;;;;;;;;4984103;28;20073;-73
2022/01/24 04:10:12;;;;;;;22.27;9.55;;;;;;;;;;4991051;28;20045;-71
2022/01/24 04:12:40;;;;;;;22.15;8.32;;;;;;;;;;4991531;28;20065;-73
2022/01/24 04:15:23;;;;;;;24.75;9.88;;;;;;;;;;4985003;28;20042;-73
2022/01/24 04:17:48;;;;;;;20.52;7.93;;;;;;;;;;4986279;28;20046;-73
2022/01/24 04:23:00;;;;;;;23.30;8.07;;;;;;;;;;4988735;28;20131;-73
2022/01/24 04:25:26;;;;;;;22.23;8.63;;;;;;;;;;4989575;28;20045;-73
2022/01/24 04:27:54;;;;;;;23.25;8.43;;;;;;;;;;4990619;28;20042;-73
2022/01/24 04:30:21;;;;;;;25.73;8.43;;;;;;;;;;5005201;28;20185;-73
2022/01/24 04:32:46;;;;;;;21.23;7.57;;;;;;;;;;4984380;28;20034;-71
2022/01/24 04:35:12;;;;;;;22.92;8.63;;;;;;;;;;4987078;28;20041;-73
2022/01/24 04:37:37;;;;;;;25.55;8.63;;;;;;;;;;4986032;28;20038;-72
2022/01/24 04:40:04;;;;;;;21.60;8.20;;;;;;;;;;4984864;28;20027;-72
2022/01/24 04:42:47;;;;;;;19.65;8.15;;;;;;;;;;4986570;28;20038;-73
2022/01/24 04:45:37;;;;;;;24.58;8.30;;;;;;;;;;4984204;28;20133;-72
2022/01/24 04:53:14;;;;;;;21.38;8.38;;;;;;;;;;4987254;28;20030;-73
2022/01/24 04:55:40;;;;;;;26.58;9.45;;;;;;;;;;4984553;28;20503;-73
2022/01/24 04:58:05;;;;;;;25.65;9.68;;;;;;;;;;4982630;28;20542;-71
2022/01/24 05:00:30;;;;;;;27.83;9.07;;;;;;;;;;4985744;28;20034;-73
2022/01/24 05:02:56;;;;;;;26.65;9.10;;;;;;;;;;4984533;28;20034;-73
2022/01/24 05:05:22;;;;;;;25.67;9.50;;;;;;;;;;4986431;28;20424;-68
2022/01/24 05:07:50;;;;;;;22.90;8.50;;;;;;;;;;4984342;28;20057;-73
2022/01/24 05:10:34;;;;;;;26.25;10.48;;;;;;;;;;4982426;28;20042;-73
2022/01/24 05:21:31;;;;;;;24.45;8.77;;;;;;;;;;4984676;28;20085;-73
2022/01/24 05:23:56;;;;;;;26.83;9.60;;;;;;;;;;4985392;28;20496;-72
2022/01/24 05:26:21;;;;;;;30.90;9.02;;;;;;;;;;4985539;28;20030;-72
2022/01/24 05:28:47;;;;;;;27.48;9.85;;;;;;;;;;4983318;28;20092;-72
2022/01/24 05:31:12;;;;;;;24.85;9.65;;;;;;;;;;4990317;28;20435;-73
2022/01/24 05:33:37;;;;;;;24.58;9.13;;;;;;;;;;4988081;28;20053;-73
2022/01/24 05:36:03;;;;;;;30.08;9.10;;;;;;;;;;4986052;28;20049;-72
2022/01/24 05:38:28;;;;;;;29.95;8.73;;;;;;;;;;4984562;28;20022;-72
2022/01/24 05:40:54;;;;;;;25.17;8.57;;;;;;;;;;4983696;28;20034;-73
2022/01/24 05:43:19;;;;;;;28.75;10.02;;;;;;;;;;4982624;28;20027;-73
2022/01/24 05:45:45;;;;;;;26.20;9.57;;;;;;;;;;4987004;28;20441;-73
2022/01/24 05:48:10;;;;;;;26.52;8.77;;;;;;;;;;4983375;28;20030;-73
2022/01/24 05:50:36;;;;;;;22.77;9.80;;;;;;;;;;4985124;28;20030;-72
2022/01/24 05:53:01;;;;;;;25.40;8.88;;;;;;;;;;4984704;28;20101;-71
2022/01/24 05:55:27;;;;;;;28.10;9.70;;;;;;;;;;4983938;28;20045;-73
2022/01/24 05:57:53;;;;;;;23.55;8.93;;;;;;;;;;4986724;28;20109;-73
2022/01/24 06:00:19;;;;;;;27.95;9.65;;;;;;;;;;5004006;28;20042;-73
2022/01/24 06:02:44;;;;;;;24.88;9.25;;;;;;;;;;4978617;28;20560;-73
2022/01/24 06:05:09;;;;;;;28.15;9.88;;;;;;;;;;4980129;28;20041;-73
2022/01/24 06:07:35;;;;;;;25.20;8.82;;;;;;;;;;4983756;28;20042;-73
2022/01/24 06:10:01;;;;;;;23.92;8.73;;;;;;;;;;4984183;28;20038;-72
2022/01/24 06:12:27;;;;;;;22.73;8.95;;;;;;;;;;4983942;28;20711;-72
2022/01/24 06:14:52;;;;;;;28.48;9.13;;;;;;;;;;4985422;28;20468;-72
2022/01/24 06:17:18;;;;;;;22.48;8.80;;;;;;;;;;4986604;28;20458;-73
2022/01/24 06:19:44;;;;;;;26.50;9.80;;;;;;;;;;4987242;28;20034;-73
2022/01/24 06:22:10;;;;;;;21.20;8.77;;;;;;;;;;4988361;28;20050;-74
2022/01/24 06:24:35;;;;;;;24.10;9.27;;;;;;;;;;5000100;28;20147;-73
2022/01/24 06:27:00;;;;;;;27.63;9.18;;;;;;;;;;4982744;28;20038;-72
2022/01/24 06:29:26;;;;;;;30.00;10.48;;;;;;;;;;4983557;28;20030;-72
2022/01/24 06:31:51;;;;;;;24.15;9.05;;;;;;;;;;4984958;28;20046;-71
2022/01/24 06:34:16;;;;;;;25.88;9.35;;;;;;;;;;4983625;28;20050;-73
2022/01/24 06:36:42;;;;;;;27.30;9.65;;;;;;;;;;4982862;28;20073;-72
2022/01/24 06:39:10;;;;;;;23.60;8.80;;;;;;;;;;4984090;28;20576;-72
2022/01/24 06:41:35;;;;;;;25.15;8.68;;;;;;;;;;4986151;28;20100;-73
2022/01/24 06:44:02;;;;;;;35.05;11.88;;;;;;;;;;4992519;28;20065;-73
2022/01/24 06:46:27;;;;;;;31.98;10.88;;;;;;;;;;4988331;28;20542;-72
2022/01/24 06:48:53;;;;;;;29.13;10.38;;;;;;;;;;4993853;28;20030;-73
2022/01/24 06:51:19;;;;;;;36.55;12.70;;;;;;;;;;4981932;28;20097;-73
2022/01/24 06:53:44;;;;;;;52.30;18.52;;;;;;;;;;4985743;28;20031;-73
2022/01/24 06:56:10;;;;;;;36.13;12.30;;;;;;;;;;4988156;28;20614;-73
2022/01/24 06:58:36;;;;;;;40.83;12.55;;;;;;;;;;4984535;28;20061;-73
2022/01/24 07:01:03;;;;;;;41.72;12.10;;;;;;;;;;4981306;28;20050;-72
2022/01/24 07:03:28;;;;;;;35.47;10.77;;;;;;;;;;4983724;28;20062;-72
2022/01/24 07:05:54;;;;;;;41.38;12.18;;;;;;;;;;4999994;28;20042;-73
2022/01/24 07:08:19;;;;;;;32.58;12.13;;;;;;;;;;4985745;28;20026;-73
2022/01/24 07:10:45;;;;;;;37.88;11.93;;;;;;;;;;4984245;28;20042;-73
2022/01/24 07:13:11;;;;;;;31.05;10.35;;;;;;;;;;4986329;28;20038;-72
2022/01/24 07:15:45;;;;;;;33.55;10.05;;;;;;;;;;4982797;28;20130;-71
2022/01/24 07:20:42;;;;;;;40.45;11.30;;;;;;;;;;4984488;28;20042;-71
2022/01/24 07:23:07;;;;;;;28.63;9.95;;;;;;;;;;4983245;28;20104;-72
2022/01/24 07:25:33;;;;;;;34.20;10.95;;;;;;;;;;4983654;28;20046;-73
2022/01/24 07:27:58;;;;;;;37.65;10.68;;;;;;;;;;4984104;28;20691;-72
2022/01/24 07:30:24;;;;;;;29.48;10.30;;;;;;;;;;4983086;28;20050;-73
2022/01/24 07:32:50;;;;;;;28.00;9.88;;;;;;;;;;4982116;28;20117;-71
2022/01/24 07:35:15;;;;;;;28.58;11.00;;;;;;;;;;4978006;28;20044;-72
2022/01/24 07:37:41;;;;;;;29.70;10.70;;;;;;;;;;4978113;28;20624;-70
2022/01/24 07:40:09;;;;;;;36.17;10.63;;;;;;;;;;4977721;28;21255;-72
2022/01/24 07:42:54;;;;;;;36.20;10.98;;;;;;;;;;4977324;28;20049;-70
2022/01/24 07:45:21;;;;;;;41.25;11.35;;;;;;;;;;4979122;28;20122;-71
2022/01/24 07:47:47;;;;;;;30.80;10.55;;;;;;;;;;4979891;28;20117;-68
2022/01/24 07:50:13;;;;;;;33.97;12.20;;;;;;;;;;4981352;28;20038;-73
2022/01/24 07:52:39;;;;;;;30.15;11.02;;;;;;;;;;4972143;28;20061;-73
2022/01/24 07:55:05;;;;;;;32.88;10.60;;;;;;;;;;4980118;28;20054;-70
2022/01/24 07:57:30;;;;;;;31.08;10.57;;;;;;;;;;4981531;28;20047;-70
2022/01/24 07:59:55;;;;;;;29.27;10.23;;;;;;;;;;4980993;28;20492;-69
2022/01/24 08:02:20;;;;;;;35.25;11.07;;;;;;;;;;4982134;28;20073;-71
2022/01/24 08:04:46;;;;;;;28.08;10.68;;;;;;;;;;4978721;28;20164;-70
2022/01/24 08:07:11;;;;;;;33.45;11.55;;;;;;;;;;4977773;28;20046;-70
2022/01/24 08:09:36;;;;;;;32.75;10.48;;;;;;;;;;4981631;28;20052;-71
2022/01/24 08:12:02;;;;;;;34.63;10.93;;;;;;;;;;4980352;28;20427;-73
2022/01/24 08:14:27;;;;;;;35.38;11.05;;;;;;;;;;4981056;28;20541;-71
2022/01/24 08:16:53;;;;;;;34.80;10.48;;;;;;;;;;4978801;28;20125;-72
2022/01/24 08:19:19;;;;;;;42.55;11.60;;;;;;;;;;4978917;28;20445;-69
2022/01/24 08:21:45;;;;;;;34.15;11.82;;;;;;;;;;4976075;28;21104;-71
2022/01/24 08:24:11;;;;;;;35.08;11.57;;;;;;;;;;4979695;28;20046;-74
2022/01/24 08:26:36;;;;;;;36.53;12.05;;;;;;;;;;4979521;28;20049;-73
2022/01/24 08:29:02;;;;;;;36.63;12.15;;;;;;;;;;4980290;28;20075;-73
2022/01/24 08:31:28;;;;;;;35.92;11.68;;;;;;;;;;4977242;28;20752;-73
2022/01/24 08:33:53;;;;;;;36.50;11.55;;;;;;;;;;4974238;28;20035;-72
2022/01/24 08:36:18;;;;;;;30.88;10.88;;;;;;;;;;4981979;28;20038;-73
2022/01/24 08:38:47;;;;;;;35.90;10.88;;;;;;;;;;4980460;28;20053;-72
2022/01/24 08:41:20;;;;;;;32.40;11.35;;;;;;;;;;4979127;28;20508;-74
2022/01/24 08:46:14;;;;;;;29.30;9.93;;;;;;;;;;4981034;28;20042;-74
2022/01/24 08:48:39;;;;;;;32.83;11.70;;;;;;;;;;4988838;28;20469;-73
2022/01/24 08:51:05;;;;;;;38.67;11.68;;;;;;;;;;4984132;28;20496;-73
2022/01/24 08:53:33;;;;;;;34.63;10.90;;;;;;;;;;4985325;28;20026;-72
2022/01/24 08:56:00;;;;;;;30.13;11.05;;;;;;;;;;4985421;28;20121;-72
2022/01/24 08:58:26;;;;;;;33.28;11.45;;;;;;;;;;4982444;28;20077;-70
2022/01/24 09:00:52;;;;;;;36.83;11.75;;;;;;;;;;4986183;28;20089;-74
2022/01/24 09:03:19;;;;;;;126.25;38.03;;;;;;;;;;4986207;28;20042;-73
2022/01/24 09:05:47;;;;;;;671.80;245.07;;;;;;;;;;4987768;28;20054;-73
2022/01/24 09:08:13;;;;;;;787.00;330.48;;;;;;;;;;4986703;28;20622;-73
2022/01/24 09:10:40;;;;;;;712.88;310.55;;;;;;;;;;4984343;28;20045;-73
2022/01/24 09:13:07;;;;;;;490.08;198.48;;;;;;;;;;4985761;28;20093;-70
2022/01/24 09:15:32;;;;;;;240.63;94.32;;;;;;;;;;4981692;28;20046;-70
2022/01/24 09:17:57;;;;;;;82.93;32.55;;;;;;;;;;4982916;28;20035;-71
2022/01/24 09:20:23;;;;;;;53.03;22.33;;;;;;;;;;4981460;28;20123;-71
2022/01/24 09:22:49;;;;;;;48.50;18.88;;;;;;;;;;4982594;28;20535;-72
2022/01/24 09:25:16;;;;;;;71.75;30.63;;;;;;;;;;4982659;28;20538;-71
2022/01/24 09:27:42;;;;;;;78.00;34.78;;;;;;;;;;4979673;28;20043;-73
2022/01/24 09:30:09;;;;;;;72.40;31.50;;;;;;;;;;4982910;28;20058;-71
2022/01/24 09:32:35;;;;;;;45.25;17.60;;;;;;;;;;4981832;28;20101;-71
2022/01/24 09:35:00;;;;;;;47.58;17.85;;;;;;;;;;4985314;28;20160;-72
2022/01/24 09:37:26;;;;;;;60.60;26.60;;;;;;;;;;4986212;28;20594;-72
2022/01/24 09:39:52;;;;;;;68.10;32.28;;;;;;;;;;4985353;28;20026;-72
2022/01/24 09:42:18;;;;;;;70.55;33.97;;;;;;;;;;4992472;28;20537;-72
2022/01/24 09:44:44;;;;;;;66.57;28.85;;;;;;;;;;4982124;28;20113;-71
2022/01/24 09:47:15;;;;;;;60.60;26.58;;;;;;;;;;4982451;28;20436;-70
2022/01/24 09:49:41;;;;;;;49.55;19.65;;;;;;;;;;4981582;28;20568;-71
2022/01/24 09:52:06;;;;;;;109.55;35.13;;;;;;;;;;4981643;28;20038;-72
2022/01/24 09:54:32;;;;;;;329.63;103.50;;;;;;;;;;4982848;28;20100;-71
2022/01/24 09:56:57;;;;;;;117.50;48.50;;;;;;;;;;4983607;28;20077;-72
2022/01/24 09:59:22;;;;;;;68.28;31.02;;;;;;;;;;4983548;28;20026;-71
2022/01/24 10:01:48;;;;;;;77.25;35.55;;;;;;;;;;4983238;28;20034;-73
2022/01/24 10:04:17;;;;;;;54.30;27.27;;;;;;;;;;4981071;28;20567;-73
2022/01/24 10:07:11;;;;;;;100.43;40.40;;;;;;;;;;4982606;28;20137;-73
2022/01/24 10:09:42;;;;;;;78.38;28.77;;;;;;;;;;4986502;28;20046;-74
2022/01/24 10:12:28;;;;;;;56.30;24.08;;;;;;;;;;5002333;28;20044;-73
2022/01/24 10:17:41;;;;;;;76.43;33.17;;;;;;;;;;4981192;28;20527;-72
2022/01/24 10:20:24;;;;;;;71.85;30.02;;;;;;;;;;4983756;28;20069;-72
2022/01/24 10:23:07;;;;;;;36.47;14.00;;;;;;;;;;4982977;28;20049;-72
2022/01/24 10:25:47;;;;;;;89.68;33.80;;;;;;;;;;4983152;28;20058;-72
2022/01/24 10:28:21;;;;;;;65.30;24.73;;;;;;;;;;4996857;28;20038;-74
2022/01/24 10:31:00;;;;;;;32.85;13.18;;;;;;;;;;4980597;28;20058;-74
2022/01/24 10:33:26;;;;;;;33.78;12.57;;;;;;;;;;4986126;28;20074;-73
2022/01/24 10:35:51;;;;;;;30.75;11.77;;;;;;;;;;4986902;28;20085;-69
2022/01/24 10:39:07;;;;;;;32.03;12.15;;;;;;;;;;4985761;28;20030;-73
2022/01/24 10:41:28;;;;;;;34.13;12.45;;;;;;;;;;4981852;28;20054;-70
2022/01/24 10:43:56;;;;;;;39.97;13.20;;;;;;;;;;4987595;28;20085;-72
2022/01/24 10:46:23;;;;;;;29.27;11.70;;;;;;;;;;4984229;28;20045;-72
2022/01/24 10:49:00;;;;;;;33.13;13.05;;;;;;;;;;4983843;28;20084;-72
2022/01/24 10:51:25;;;;;;;31.10;11.77;;;;;;;;;;4982098;28;20524;-72
2022/01/24 10:53:55;;;;;;;31.05;12.10;;;;;;;;;;4982516;28;20042;-69
2022/01/24 10:56:43;;;;;;;34.65;12.57;;;;;;;;;;4983274;28;20426;-72
2022/01/24 10:59:11;;;;;;;32.72;12.07;;;;;;;;;;4983195;28;20046;-72
2022/01/24 11:01:38;;;;;;;35.10;12.05;;;;;;;;;;4997375;28;20093;-72
2022/01/24 11:04:13;;;;;;;30.15;11.70;;;;;;;;;;4979953;28;20038;-72
2022/01/24 11:06:50;;;;;;;37.58;12.43;;;;;;;;;;4978284;28;20069;-72
2022/01/24 11:09:18;;;;;;;31.83;11.60;;;;;;;;;;4977512;28;20045;-72
2022/01/24 11:11:44;;;;;;;29.77;11.50;;;;;;;;;;4978717;28;20038;-72
2022/01/24 11:14:13;;;;;;;40.10;15.93;;;;;;;;;;4979704;28;20104;-71
2022/01/24 11:16:38;;;;;;;33.55;13.80;;;;;;;;;;4979491;28;20538;-71
2022/01/24 11:19:12;;;;;;;36.00;15.07;;;;;;;;;;4971596;28;20039;-71
2022/01/24 11:21:39;;;;;;;34.45;13.35;;;;;;;;;;4965704;28;20535;-72
2022/01/24 11:24:07;;;;;;;32.92;12.65;;;;;;;;;;4977579;28;20520;-72
2022/01/24 11:26:34;;;;;;;33.92;14.02;;;;;;;;;;4984368;28;20081;-73
2022/01/24 11:29:00;;;;;;;31.05;14.00;;;;;;;;;;4985896;28;20038;-71
2022/01/24 11:31:32;;;;;;;31.23;12.52;;;;;;;;;;4978306;28;20536;-71
2022/01/24 11:34:11;;;;;;;31.92;12.55;;;;;;;;;;4980014;28;20053;-72
2022/01/24 11:36:39;;;;;;;27.63;11.60;;;;;;;;;;4964429;28;20050;-72
2022/01/24 11:39:06;;;;;;;28.55;11.15;;;;;;;;;;4963511;28;20440;-70
2022/01/24 11:41:33;;;;;;;23.15;9.55;;;;;;;;;;4983254;28;20042;-71
2022/01/24 11:44:09;;;;;;;25.75;10.70;;;;;;;;;;5014501;28;20029;-71
2022/01/24 11:46:55;;;;;;;29.33;11.85;;;;;;;;;;4970624;28;20702;-71
2022/01/24 11:49:24;;;;;;;26.08;11.13;;;;;;;;;;4982359;28;20038;-71
2022/01/24 11:52:00;;;;;;;30.23;11.27;;;;;;;;;;4978727;28;20065;-72
2022/01/24 11:55:02;;;;;;;28.35;11.55;;;;;;;;;;4982003;28;20039;-70
2022/01/24 11:57:37;;;;;;;28.50;12.38;;;;;;;;;;4981127;28;20467;-69
2022/01/24 12:00:06;;;;;;;29.30;10.32;;;;;;;;;;4980474;28;20050;-72
2022/01/24 12:02:45;;;;;;;36.13;13.80;;;;;;;;;;4980502;28;20030;-72
2022/01/24 12:05:26;;;;;;;32.75;12.90;;;;;;;;;;4964046;28;20389;-73
2022/01/24 12:07:57;;;;;;;29.80;10.52;;;;;;;;;;4981092;28;20085;-71
2022/01/24 12:10:23;;;;;;;29.58;11.27;;;;;;;;;;4985413;28;20524;-72
2022/01/24 12:12:55;;;;;;;26.10;11.38;;;;;;;;;;4984788;28;20045;-72
2022/01/24 12:15:40;;;;;;;26.48;10.48;;;;;;;;;;4981505;28;20104;-72
2022/01/24 12:18:13;;;;;;;27.83;11.35;;;;;;;;;;4968837;28;20400;-71
2022/01/24 12:20:40;;;;;;;27.85;10.43;;;;;;;;;;4975374;28;20038;-71
2022/01/24 12:23:24;;;;;;;30.05;11.75;;;;;;;;;;4979290;28;20034;-72
2022/01/24 12:25:54;;;;;;;31.30;11.40;;;;;;;;;;4986281;28;20112;-72
2022/01/24 12:28:47;;;;;;;20.65;8.65;;;;;;;;;;4989022;28;20042;-73
2022/01/24 12:31:17;;;;;;;27.47;11.33;;;;;;;;;;4970519;28;20046;-71
2022/01/24 12:33:51;;;;;;;32.08;12.23;;;;;;;;;;4982276;28;20105;-71
2022/01/24 12:36:49;;;;;;;40.15;13.32;;;;;;;;;;4984845;28;20042;-70
2022/01/24 12:39:26;;;;;;;34.17;11.90;;;;;;;;;;4983841;28;20052;-71
2022/01/24 12:41:59;;;;;;;26.13;11.15;;;;;;;;;;4983843;28;20049;-72
2022/01/24 12:47:05;;;;;;;28.92;11.15;;;;;;;;;;4983737;28;20026;-72
2022/01/24 12:49:31;;;;;;;30.85;12.20;;;;;;;;;;4985590;28;20615;-71
2022/01/24 12:52:06;;;;;;;25.10;10.90;;;;;;;;;;4987856;28;20050;-72
2022/01/24 12:54:34;;;;;;;29.65;12.00;;;;;;;;;;4985395;28;20693;-73
2022/01/24 12:57:11;;;;;;;27.30;10.95;;;;;;;;;;4984013;28;20796;-71
2022/01/24 12:59:38;;;;;;;32.22;12.50;;;;;;;;;;4982849;28;20058;-72
2022/01/24 13:02:08;;;;;;;29.75;11.93;;;;;;;;;;4984232;28;20030;-72
2022/01/24 13:04:37;;;;;;;27.75;10.63;;;;;;;;;;4986486;28;20029;-72
2022/01/24 13:07:04;;;;;;;29.63;11.02;;;;;;;;;;4984931;28;20118;-71
2022/01/24 13:09:30;;;;;;;28.77;11.70;;;;;;;;;;4987687;28;20042;-73
2022/01/24 13:12:00;;;;;;;29.60;11.50;;;;;;;;;;4985205;28;20586;-74
2022/01/24 13:14:58;;;;;;;28.30;11.15;;;;;;;;;;4982379;28;20092;-71
2022/01/24 13:23:05;;;;;;;24.25;10.95;;;;;;;;;;4982278;28;20581;-72
2022/01/24 13:25:36;;;;;;;28.83;11.52;;;;;;;;;;5000024;28;20436;-73
2022/01/24 13:28:02;;;;;;;29.95;10.65;;;;;;;;;;4981946;28;20034;-72
2022/01/24 13:30:27;;;;;;;32.65;10.90;;;;;;;;;;4984981;28;20085;-73
2022/01/24 13:32:59;;;;;;;30.17;12.85;;;;;;;;;;4985720;28;20189;-74
2022/01/24 13:35:30;;;;;;;27.73;12.00;;;;;;;;;;4986858;28;20543;-75
2022/01/24 13:38:03;;;;;;;28.52;10.90;;;;;;;;;;4984121;28;20058;-72
2022/01/24 13:40:37;;;;;;;;;;;;;;;;;;4981800;28;20053;-75
2022/01/24 13:43:03;;;;;;;31.13;12.05;;;;;;;;;;4980873;28;19925;-71
2022/01/24 13:45:32;;;;;;;36.72;12.07;;;;;;;;;;4984499;28;20038;-73
2022/01/24 13:48:01;;;;;;;25.67;10.90;;;;;;;;;;4986668;28;20033;-73
2022/01/24 13:50:27;;;;;;;30.63;10.65;;;;;;;;;;4985070;28;20057;-74
2022/01/24 13:52:53;;;;;;;32.60;11.27;;;;;;;;;;4986414;28;20452;-74
2022/01/24 13:55:22;;;;;;;27.60;11.07;;;;;;;;;;4983681;28;20579;-74
2022/01/24 13:57:52;;;;;;;30.00;11.30;;;;;;;;;;4982387;28;20045;-72
2022/01/24 14:00:26;;;;;;;33.55;13.00;;;;;;;;;;4982035;28;20030;-73
2022/01/24 14:03:11;;;;;;;37.10;12.82;;;;;;;;;;4997928;28;20042;-73
2022/01/24 14:05:37;;;;;;;24.05;10.15;;;;;;;;;;4980706;28;20704;-72
2022/01/24 14:08:16;;;;;;;29.40;11.57;;;;;;;;;;4985102;28;20030;-72
2022/01/24 14:10:43;;;;;;;33.60;12.50;;;;;;;;;;4987462;28;20496;-76
2022/01/24 14:13:09;;;;;;;32.95;12.52;;;;;;;;;;4987277;28;20027;-69
2022/01/24 14:15:52;;;;;;;28.10;11.30;;;;;;;;;;4985945;28;20050;-70
2022/01/24 14:18:29;;;;;;;27.83;11.57;;;;;;;;;;4996762;28;20053;-72
2022/01/24 14:21:13;;;;;;;30.83;12.07;;;;;;;;;;4983189;28;20053;-71
2022/01/24 14:23:39;;;;;;;30.20;12.02;;;;;;;;;;4981961;28;20048;-72
2022/01/24 14:26:14;;;;;;;27.98;10.98;;;;;;;;;;4983806;28;20102;-71
2022/01/24 14:28:39;;;;;;;28.00;10.65;;;;;;;;;;4983481;28;20105;-73
2022/01/24 14:31:11;;;;;;;31.55;11.52;;;;;;;;;;4981520;28;20034;-71
2022/01/24 14:33:36;;;;;;;29.92;10.90;;;;;;;;;;4983028;28;20030;-72
2022/01/24 14:36:11;;;;;;;31.48;11.98;;;;;;;;;;4981466;28;20053;-71
2022/01/24 14:38:46;;;;;;;36.42;15.82;;;;;;;;;;4985485;28;20520;-70
2022/01/24 14:41:46;;;;;;;438.70;169.88;;;;;;;;;;4986078;28;20531;-69
2022/01/24 14:46:59;;;;;;;111.10;44.08;;;;;;;;;;4985688;28;20065;-74
2022/01/24 14:49:27;;;;;;;66.63;28.17;;;;;;;;;;4980158;28;20042;-75
2022/01/24 14:51:59;;;;;;;30.17;12.60;;;;;;;;;;4981672;28;20113;-76
2022/01/24 14:54:27;;;;;;;28.83;12.55;;;;;;;;;;4997186;28;20042;-76
2022/01/24 14:56:55;;;;;;;32.80;14.30;;;;;;;;;;4984635;28;20038;-76
2022/01/24 14:59:21;;;;;;;43.53;19.60;;;;;;;;;;4986669;28;20679;-76
2022/01/24 15:01:48;;;;;;;122.47;50.58;;;;;;;;;;4984207;28;20501;-76
2022/01/24 15:04:13;;;;;;;108.85;44.75;;;;;;;;;;4981958;28;20530;-75
2022/01/24 15:06:39;;;;;;;66.13;28.73;;;;;;;;;;4986603;28;20046;-76
2022/01/24 15:09:11;;;;;;;71.78;29.27;;;;;;;;;;4985011;28;20101;-75
2022/01/24 15:11:39;;;;;;;55.65;22.10;;;;;;;;;;4983020;28;20041;-75
2022/01/24 15:14:12;;;;;;;53.13;22.00;;;;;;;;;;4976189;28;20041;-75
2022/01/24 15:27:20;;;;;;;58.33;19.55;;;;;;;;;;4985030;28;20038;-73
2022/01/24 15:29:45;;;;;;;51.08;19.30;;;;;;;;;;4983795;28;20062;-73
2022/01/24 15:32:10;;;;;;;59.28;20.42;;;;;;;;;;4981374;28;20673;-73
2022/01/24 15:34:38;;;;;;;90.57;30.70;;;;;;;;;;4982320;28;20050;-74
2022/01/24 15:37:06;;;;;;;73.65;27.75;;;;;;;;;;5000414;28;20061;-73
2022/01/24 15:39:32;;;;;;;77.70;27.50;;;;;;;;;;4983614;28;20034;-73
2022/01/24 15:42:03;;;;;;;78.88;30.92;;;;;;;;;;4984023;28;20840;-72
2022/01/24 15:47:00;;;;;;;42.42;15.77;;;;;;;;;;4982355;28;20030;-73
2022/01/24 15:49:25;;;;;;;36.67;13.43;;;;;;;;;;4984812;28;20045;-74
2022/01/24 15:51:50;;;;;;;34.58;12.50;;;;;;;;;;4981915;28;20042;-74
2022/01/24 15:54:19;;;;;;;32.20;11.18;;;;;;;;;;4983906;28;20054;-74
2022/01/24 15:59:09;;;;;;;34.70;12.07;;;;;;;;;;4987470;28;20037;-72
2022/01/24 16:01:36;;;;;;;28.85;11.20;;;;;;;;;;4983868;28;20117;-74
2022/01/24 16:04:03;;;;;;;28.65;10.43;;;;;;;;;;4985133;28;20427;-74
2022/01/24 16:06:29;;;;;;;24.63;9.93;;;;;;;;;;4986312;28;20039;-74
2022/01/24 16:08:55;;;;;;;26.33;11.13;;;;;;;;;;4997164;28;20116;-74
2022/01/24 16:11:23;;;;;;;25.05;10.30;;;;;;;;;;4987681;28;20557;-70
2022/01/24 16:13:49;;;;;;;27.58;10.38;;;;;;;;;;4988060;28;20037;-74
2022/01/24 16:16:16;;;;;;;30.13;11.93;;;;;;;;;;4988934;28;20475;-74
2022/01/24 16:18:42;;;;;;;31.05;11.80;;;;;;;;;;4990107;28;20140;-74
2022/01/24 16:21:26;;;;;;;38.88;15.07;;;;;;;;;;4989621;28;20093;-74
2022/01/24 16:25:19;;;;;;;85.40;32.38;;;;;;;;;;4988036;28;21018;-74
2022/01/24 16:26:41;;;;;;;125.00;49.47;;;;;;;;;;4986904;28;20129;-74
2022/01/24 16:29:07;;;;;;;133.25;49.85;;;;;;;;;;4983933;28;20795;-73
2022/01/24 16:31:32;;;;;;;107.97;42.72;;;;;;;;;;4983986;28;20484;-74
2022/01/24 16:33:58;;;;;;;112.97;43.25;;;;;;;;;;4983100;28;20550;-74
2022/01/24 16:36:23;;;;;;;92.93;39.47;;;;;;;;;;4987141;28;20041;-74
2022/01/24 16:38:49;;;;;;;48.03;19.10;;;;;;;;;;4983787;28;20092;-74